createdAt,value
2018-09-06T16:01:58.181Z,24.07
2018-09-06T16:04:26.573Z,21.23
2018-09-06T16:06:54.825Z,20.83
2018-09-06T16:09:23.042Z,21.03
2018-09-06T16:11:51.542Z,21.03
2018-09-06T16:14:20.432Z,14.27
2018-09-06T16:16:48.488Z,14.50
2018-09-06T16:19:17.164Z,15.00
2018-09-06T16:21:45.673Z,15.63
2018-09-06T16:24:13.934Z,14.30
2018-09-06T16:26:41.890Z,17.40
2018-09-06T16:29:10.256Z,15.27
2018-09-06T16:31:38.265Z,14.57
2018-09-06T16:34:08.733Z,14.07
2018-09-06T16:36:37.151Z,15.57
2018-09-06T16:39:07.118Z,13.77
2018-09-06T16:41:35.456Z,18.00
2018-09-06T16:44:03.685Z,14.83
2018-09-06T16:46:32.208Z,36.20
2018-09-06T16:49:00.446Z,26.60
2018-09-06T16:51:28.757Z,27.67
2018-09-06T16:53:56.963Z,26.80
2018-09-06T16:56:24.932Z,24.23
2018-09-06T16:58:59.900Z,24.00
2018-09-06T17:01:28.185Z,22.77
2018-09-06T17:03:57.075Z,21.50
2018-09-06T17:06:25.689Z,22.90
2018-09-06T17:08:54.071Z,22.00
2018-09-06T17:11:23.119Z,20.33
2018-09-06T17:13:51.464Z,20.17
2018-09-06T17:16:19.671Z,23.20
2018-09-06T17:18:47.857Z,21.63
2018-09-06T17:21:15.964Z,23.83
2018-09-06T17:23:44.157Z,24.20
2018-09-06T17:26:12.422Z,23.20
2018-09-06T17:28:40.785Z,26.03
2018-09-06T17:31:09.021Z,25.23
2018-09-06T17:33:37.277Z,24.50
2018-09-06T17:36:05.527Z,25.43
2018-09-06T17:38:33.832Z,27.80
2018-09-06T17:41:02.067Z,26.67
2018-09-06T17:43:30.325Z,24.83
2018-09-06T17:45:58.584Z,22.40
2018-09-06T17:48:26.625Z,14.70
2018-09-06T17:50:54.858Z,12.43
2018-09-06T17:53:23.213Z,11.77
2018-09-06T17:55:51.568Z,10.03
2018-09-06T17:58:19.796Z,9.03
2018-09-06T18:01:03.303Z,8.60
2018-09-06T18:03:31.652Z,10.00
2018-09-06T18:05:59.893Z,8.50
2018-09-06T18:08:28.072Z,10.00
2018-09-06T18:10:56.395Z,9.17
2018-09-06T18:13:24.630Z,9.60
2018-09-06T18:15:52.865Z,11.83
2018-09-06T18:18:21.072Z,11.97
2018-09-06T18:20:49.334Z,11.80
2018-09-06T18:23:17.309Z,11.80
2018-09-06T18:25:45.303Z,13.37
2018-09-06T18:28:13.509Z,12.10
2018-09-06T18:30:41.749Z,13.27
2018-09-06T18:33:09.716Z,15.97
2018-09-06T18:35:37.719Z,12.50
2018-09-06T18:38:06.097Z,12.67
2018-09-06T18:40:34.043Z,14.03
2018-09-06T18:43:02.267Z,13.80
2018-09-06T18:45:30.639Z,14.13
2018-09-06T18:47:58.832Z,13.27
2018-09-06T18:50:27.071Z,13.67
2018-09-06T18:52:55.253Z,13.73
2018-09-06T18:55:23.463Z,15.43
2018-09-06T18:57:51.644Z,14.30
2018-09-06T19:00:19.945Z,14.77
2018-09-06T19:02:48.165Z,14.20
2018-09-06T19:05:16.422Z,16.83
2018-09-06T19:07:44.640Z,15.43
2018-09-06T19:10:12.870Z,15.50
2018-09-06T19:12:41.048Z,15.23
2018-09-06T19:15:09.617Z,16.37
2018-09-06T19:17:39.539Z,18.67
2018-09-06T19:20:07.555Z,18.10
2018-09-06T19:22:35.791Z,17.27
2018-09-06T19:25:04.018Z,18.80
2018-09-06T19:27:32.176Z,19.83
2018-09-06T19:30:00.122Z,19.47
2018-09-06T19:32:28.361Z,20.37
2018-09-06T19:34:56.648Z,21.90
2018-09-06T19:37:24.587Z,22.80
2018-09-06T19:39:52.829Z,20.93
2018-09-06T19:42:21.064Z,24.00
2018-09-06T19:44:49.275Z,24.90
2018-09-06T19:47:17.513Z,23.67
2018-09-06T19:49:45.719Z,24.40
2018-09-06T19:52:13.901Z,25.60
2018-09-06T19:54:42.123Z,25.27
2018-09-06T19:57:10.537Z,27.27
2018-09-06T19:59:39.249Z,26.13
2018-09-06T20:02:07.758Z,28.67
2018-09-06T20:04:36.139Z,28.50
2018-09-06T20:07:04.528Z,26.57
2018-09-06T20:09:32.749Z,26.97
2018-09-06T20:12:01.113Z,27.63
2018-09-06T20:14:29.769Z,28.07
2018-09-06T20:16:58.137Z,25.47
2018-09-06T20:19:26.401Z,27.00
2018-09-06T20:21:54.732Z,26.10
2018-09-06T20:24:22.712Z,28.33
2018-09-06T20:26:51.324Z,27.83
2018-09-06T20:29:20.886Z,29.30
2018-09-06T20:31:50.024Z,27.43
2018-09-06T20:34:18.388Z,30.70
2018-09-06T20:36:46.735Z,29.80
2018-09-06T20:39:15.652Z,27.67
2018-09-06T20:41:44.100Z,30.50
2018-09-06T20:44:12.412Z,28.80
2018-09-06T20:46:41.323Z,29.23
2018-09-06T20:49:12.696Z,27.03
2018-09-06T20:51:40.941Z,29.13
2018-09-06T20:54:09.540Z,26.50
2018-09-06T20:56:37.815Z,28.20
2018-09-06T20:59:06.104Z,28.77
2018-09-06T21:01:34.837Z,27.67
2018-09-06T21:04:03.073Z,27.70
2018-09-06T21:06:31.724Z,28.10
2018-09-06T21:09:00.326Z,29.13
2018-09-06T21:11:28.529Z,28.20
2018-09-06T21:13:57.745Z,27.17
2018-09-06T21:16:27.324Z,28.43
2018-09-06T21:18:55.290Z,27.10
2018-09-06T21:21:23.617Z,29.73
2018-09-06T21:23:52.783Z,26.53
2018-09-06T21:26:20.892Z,25.87
2018-09-06T21:28:49.340Z,27.07
2018-09-06T21:31:17.542Z,25.63
2018-09-06T21:33:46.834Z,25.33
2018-09-06T21:36:15.656Z,24.20
2018-09-06T21:38:43.602Z,24.00
2018-09-06T21:41:11.913Z,21.70
2018-09-06T21:43:45.964Z,21.70
2018-09-06T21:46:14.325Z,22.80
2018-09-06T21:48:43.429Z,24.73
2018-09-06T21:51:12.645Z,25.00
2018-09-06T21:53:41.003Z,22.10
2018-09-06T21:56:09.276Z,22.77
2018-09-06T21:58:44.964Z,20.47
